createdAt,value
2018-08-24T00:00:18.383Z,100564.53
2018-08-24T00:02:47.045Z,100558.52
2018-08-24T00:05:15.719Z,100559.61
2018-08-24T00:07:44.402Z,100561.19
2018-08-24T00:10:13.039Z,100562.44
2018-08-24T00:12:41.698Z,100559.48
2018-08-24T00:15:10.328Z,100552.54
2018-08-24T00:17:39.028Z,100554.84
2018-08-24T00:20:07.695Z,100544.14
2018-08-24T00:22:36.371Z,100548.50
2018-08-24T00:25:05.135Z,100543.83
2018-08-24T00:27:33.781Z,100542.10
2018-08-24T00:30:02.423Z,100539.83
2018-08-24T00:32:31.095Z,100541.47
2018-08-24T00:34:59.755Z,100532.09
2018-08-24T00:37:28.409Z,100521.27
2018-08-24T00:39:57.063Z,100526.43
2018-08-24T00:42:25.725Z,100522.47
2018-08-24T00:44:54.376Z,100524.09
2018-08-24T00:47:23.036Z,100528.22
2018-08-24T00:49:51.678Z,100533.19
2018-08-24T00:52:20.580Z,100531.04
2018-08-24T00:54:49.263Z,100521.22
2018-08-24T00:57:17.918Z,100516.83
2018-08-24T00:59:46.588Z,100511.87
2018-08-24T01:02:15.265Z,100502.08
2018-08-24T01:04:43.914Z,100499.08
2018-08-24T01:07:13.827Z,100512.71
2018-08-24T01:09:42.934Z,100507.14
2018-08-24T01:12:13.706Z,100509.31
2018-08-24T01:14:43.712Z,100508.61
2018-08-24T01:17:17.571Z,100504.13
2018-08-24T01:19:46.733Z,100501.31
2018-08-24T01:22:15.762Z,100495.94
2018-08-24T01:24:44.415Z,100494.72
2018-08-24T01:27:13.038Z,100491.36
2018-08-24T01:29:42.925Z,100499.97
2018-08-24T01:32:11.606Z,100504.87
2018-08-24T01:34:40.258Z,100501.57
2018-08-24T01:37:08.902Z,100497.33
2018-08-24T01:39:37.562Z,100493.23
2018-08-24T01:42:06.228Z,100490.92
2018-08-24T01:44:34.876Z,100490.31
2018-08-24T01:47:03.548Z,100496.84
2018-08-24T01:49:32.200Z,100496.45
2018-08-24T01:52:00.836Z,100493.92
2018-08-24T01:54:29.487Z,100501.27
2018-08-24T01:56:58.177Z,100498.52
2018-08-24T01:59:26.813Z,100497.69
2018-08-24T02:01:55.452Z,100499.13
2018-08-24T02:04:24.104Z,100500.50
2018-08-24T02:06:52.737Z,100508.56
2018-08-24T02:09:23.033Z,100504.61
2018-08-24T02:11:52.088Z,100507.53
2018-08-24T02:14:26.209Z,100502.13
2018-08-24T02:16:54.811Z,100494.81
2018-08-24T02:19:28.708Z,100496.31
2018-08-24T02:22:02.590Z,100491.30
2018-08-24T02:24:31.263Z,100489.52
2018-08-24T02:26:59.896Z,100491.03
2018-08-24T02:29:28.556Z,100488.63
2018-08-24T02:31:57.207Z,100488.05
2018-08-24T02:34:25.863Z,100485.42
2018-08-24T02:36:54.498Z,100486.87
2018-08-24T02:39:23.168Z,100483.59
2018-08-24T02:41:51.825Z,100480.86
2018-08-24T02:44:20.484Z,100483.72
2018-08-24T02:46:49.125Z,100485.45
2018-08-24T02:49:17.794Z,100482.78
2018-08-24T02:51:46.460Z,100481.75
2018-08-24T02:54:15.124Z,100476.57
2018-08-24T02:56:43.885Z,100482.73
2018-08-24T02:59:12.595Z,100487.98
2018-08-24T03:01:41.234Z,100486.65
2018-08-24T03:04:09.908Z,100479.98
2018-08-24T03:06:38.543Z,100474.19
2018-08-24T03:09:09.827Z,100474.97
2018-08-24T03:11:38.470Z,100475.23
2018-08-24T03:14:07.178Z,100480.69
2018-08-24T03:16:35.877Z,100486.09
2018-08-24T03:19:04.588Z,100488.75
2018-08-24T03:21:33.245Z,100482.91
2018-08-24T03:24:01.905Z,100487.59
2018-08-24T03:26:30.550Z,100485.94
2018-08-24T03:28:59.221Z,100478.00
2018-08-24T03:31:27.857Z,100469.22
2018-08-24T03:33:56.496Z,100466.98
2018-08-24T03:36:25.151Z,100467.45
2018-08-24T03:38:53.782Z,100470.16
2018-08-24T03:41:22.440Z,100465.20
2018-08-24T03:43:51.074Z,100462.73
2018-08-24T03:46:19.731Z,100457.81
2018-08-24T03:48:48.389Z,100457.77
2018-08-24T03:51:17.052Z,100455.98
2018-08-24T03:53:45.693Z,100455.53
2018-08-24T03:56:14.361Z,100460.92
2018-08-24T03:58:43.007Z,100467.20
2018-08-24T04:01:11.688Z,100463.13
2018-08-24T04:03:40.343Z,100465.17
2018-08-24T04:06:09.001Z,100463.97
2018-08-24T04:08:37.654Z,100460.50
2018-08-24T04:11:06.483Z,100455.81
2018-08-24T04:13:35.128Z,100458.05
2018-08-24T04:16:03.799Z,100459.23
2018-08-24T04:18:32.458Z,100460.73
2018-08-24T04:21:01.150Z,100465.20
2018-08-24T04:23:29.784Z,100466.59
2018-08-24T04:25:58.482Z,100465.85
2018-08-24T04:28:27.127Z,100465.37
2018-08-24T04:30:55.795Z,100461.60
2018-08-24T04:33:24.436Z,100465.02
2018-08-24T04:35:53.090Z,100464.84
2018-08-24T04:38:21.731Z,100460.20
2018-08-24T04:40:50.392Z,100453.98
2018-08-24T04:43:19.036Z,100456.29
2018-08-24T04:45:47.692Z,100450.86
2018-08-24T04:48:16.330Z,100450.98
2018-08-24T04:50:44.999Z,100456.55
2018-08-24T04:53:13.680Z,100452.18
2018-08-24T04:55:42.347Z,100458.29
2018-08-24T04:58:11.006Z,100456.37
2018-08-24T05:00:39.676Z,100455.30
2018-08-24T05:03:08.371Z,100457.31
2018-08-24T05:05:37.074Z,100452.66
2018-08-24T05:08:05.699Z,100447.73
2018-08-24T05:10:34.298Z,100446.42
2018-08-24T05:13:02.932Z,100448.16
2018-08-24T05:15:31.600Z,100451.23
2018-08-24T05:18:00.245Z,100453.82
2018-08-24T05:20:28.920Z,100451.99
2018-08-24T05:22:57.460Z,100455.71
2018-08-24T05:25:26.007Z,100456.33
2018-08-24T05:27:54.661Z,100465.72
2018-08-24T05:30:23.343Z,100462.93
2018-08-24T05:32:51.978Z,100460.47
2018-08-24T05:35:20.528Z,100473.22
2018-08-24T05:37:49.041Z,100469.66
2018-08-24T05:40:17.725Z,100471.06
2018-08-24T05:42:46.387Z,100464.80
2018-08-24T05:45:15.033Z,100461.86
2018-08-24T05:47:43.708Z,100460.89
2018-08-24T05:50:12.355Z,100455.02
2018-08-24T05:52:41.009Z,100467.84
2018-08-24T05:55:09.671Z,100463.99
2018-08-24T05:57:38.343Z,100469.03
2018-08-24T06:00:07.096Z,100471.25
2018-08-24T06:02:35.817Z,100472.59
2018-08-24T06:05:04.480Z,100478.13
2018-08-24T06:07:33.146Z,100481.72
2018-08-24T06:10:01.787Z,100479.51
2018-08-24T06:12:30.456Z,100470.92
2018-08-24T06:14:59.120Z,100469.03
2018-08-24T06:17:32.940Z,100480.45
2018-08-24T06:20:01.593Z,100490.03
2018-08-24T06:22:30.292Z,100493.98
2018-08-24T06:24:58.940Z,100505.11
2018-08-24T06:27:27.636Z,100505.06
2018-08-24T06:29:56.285Z,100514.13
2018-08-24T06:32:25.023Z,100513.52
2018-08-24T06:34:53.733Z,100506.83
2018-08-24T06:37:22.439Z,100510.60
2018-08-24T06:39:51.095Z,100522.15
2018-08-24T06:42:19.751Z,100506.56
2018-08-24T06:44:48.451Z,100535.13
2018-08-24T06:47:17.171Z,100541.61
2018-08-24T06:49:45.789Z,100546.53
2018-08-24T06:52:14.463Z,100547.59
2018-08-24T06:54:46.807Z,100550.31
2018-08-24T06:57:15.587Z,100543.22
2018-08-24T06:59:44.345Z,100555.21
2018-08-24T07:02:13.044Z,100542.16
2018-08-24T07:04:41.696Z,100554.52
2018-08-24T07:07:10.381Z,100556.30
2018-08-24T07:09:39.769Z,100548.63
2018-08-24T07:12:10.704Z,100546.91
2018-08-24T07:14:43.433Z,100547.27
2018-08-24T07:17:12.103Z,100556.28
2018-08-24T07:19:40.749Z,100545.81
2018-08-24T07:22:09.440Z,100557.27
2018-08-24T07:24:38.083Z,100554.03
2018-08-24T07:27:06.752Z,100560.23
2018-08-24T07:29:35.387Z,100566.73
2018-08-24T07:32:04.322Z,100568.67
2018-08-24T07:34:32.969Z,100572.63
2018-08-24T07:37:01.646Z,100582.45
2018-08-24T07:39:30.303Z,100574.50
2018-08-24T07:41:59.074Z,100578.19
2018-08-24T07:44:27.657Z,100572.83
2018-08-24T07:46:56.340Z,100576.51
2018-08-24T07:49:24.971Z,100580.92
2018-08-24T07:51:53.656Z,100569.53
2018-08-24T07:54:22.299Z,100575.58
2018-08-24T07:56:50.953Z,100585.05
2018-08-24T07:59:19.719Z,100575.70
2018-08-24T08:01:48.401Z,100586.52
2018-08-24T08:04:17.078Z,100585.17
2018-08-24T08:06:45.746Z,100594.03
2018-08-24T08:09:14.414Z,100590.95
2018-08-24T08:11:43.055Z,100585.98
2018-08-24T08:14:11.721Z,100583.44
2018-08-24T08:16:40.374Z,100592.87
2018-08-24T08:19:09.040Z,100590.38
2018-08-24T08:21:37.705Z,100602.83
2018-08-24T08:24:06.532Z,100603.36
2018-08-24T08:26:35.198Z,100596.34
2018-08-24T08:29:03.978Z,100602.83
2018-08-24T08:31:32.615Z,100599.84
2018-08-24T08:34:01.538Z,100599.86
2018-08-24T08:36:30.174Z,100595.41
2018-08-24T08:38:58.907Z,100595.12
2018-08-24T08:41:27.551Z,100599.80
2018-08-24T08:43:56.204Z,100604.32
2018-08-24T08:46:24.846Z,100610.44
2018-08-24T08:48:53.501Z,100614.27
2018-08-24T08:51:22.192Z,100618.68
2018-08-24T08:53:50.866Z,100602.63
2018-08-24T08:56:19.578Z,100603.48
2018-08-24T08:58:48.283Z,100602.09
2018-08-24T09:01:16.912Z,100612.92
2018-08-24T09:03:45.581Z,100610.44
2018-08-24T09:06:14.347Z,100617.64
2018-08-24T09:08:42.973Z,100620.95
2018-08-24T09:11:11.618Z,100622.55
2018-08-24T09:13:40.280Z,100624.57
2018-08-24T09:16:08.922Z,100627.05
2018-08-24T09:18:42.819Z,100628.95
2018-08-24T09:21:16.756Z,100625.06
2018-08-24T09:23:50.647Z,100625.04
2018-08-24T09:27:23.035Z,100622.53
2018-08-24T09:29:51.718Z,100614.91
2018-08-24T09:32:20.479Z,100607.13
2018-08-24T09:34:49.160Z,100609.91
2018-08-24T09:37:23.018Z,100612.80
2018-08-24T09:39:51.680Z,100616.48
2018-08-24T09:42:20.328Z,100628.73
2018-08-24T09:44:48.995Z,100618.75
2018-08-24T09:47:22.903Z,100611.78
2018-08-24T09:49:51.576Z,100607.58
2018-08-24T09:52:25.268Z,100613.75
2018-08-24T09:54:53.938Z,100620.16
2018-08-24T09:57:22.588Z,100613.48
2018-08-24T09:59:51.253Z,100605.13
2018-08-24T10:02:24.880Z,100612.91
2018-08-24T10:04:58.828Z,100623.70
2018-08-24T10:07:32.652Z,100604.28
2018-08-24T10:10:01.935Z,100615.09
2018-08-24T10:12:35.602Z,100614.83
2018-08-24T10:15:05.665Z,100611.50
2018-08-24T10:17:34.306Z,100612.64
2018-08-24T10:20:03.011Z,100604.00
2018-08-24T10:22:32.316Z,100598.73
2018-08-24T10:25:01.039Z,100608.18
2018-08-24T10:27:29.672Z,100622.03
2018-08-24T10:29:58.321Z,100625.91
2018-08-24T10:32:26.935Z,100639.75
2018-08-24T10:34:55.582Z,100632.52
2018-08-24T10:37:24.199Z,100630.84
2018-08-24T10:39:52.864Z,100634.73
2018-08-24T10:42:21.485Z,100623.85
2018-08-24T10:44:50.140Z,100629.39
2018-08-24T10:47:18.828Z,100639.63
2018-08-24T10:49:47.496Z,100645.51
2018-08-24T10:52:16.132Z,100653.06
2018-08-24T10:54:44.788Z,100657.86
2018-08-24T10:57:13.448Z,100652.64
2018-08-24T10:59:42.135Z,100652.91
2018-08-24T11:02:10.884Z,100660.13
2018-08-24T11:04:39.464Z,100666.78
2018-08-24T11:07:08.150Z,100666.73
2018-08-24T11:09:36.879Z,100662.30
2018-08-24T11:12:05.543Z,100651.73
2018-08-24T11:14:34.173Z,100647.00
2018-08-24T11:17:02.857Z,100650.37
2018-08-24T11:19:31.500Z,100656.16
2018-08-24T11:22:00.164Z,100657.00
2018-08-24T11:24:28.789Z,100658.71
2018-08-24T11:26:57.516Z,100663.44
2018-08-24T11:29:26.265Z,100660.11
2018-08-24T11:31:54.819Z,100655.34
2018-08-24T11:34:23.451Z,100666.75
2018-08-24T11:36:52.090Z,100657.31
2018-08-24T11:39:20.707Z,100655.92
2018-08-24T11:41:49.420Z,100660.68
2018-08-24T11:44:18.026Z,100657.59
2018-08-24T11:46:46.676Z,100653.66
2018-08-24T11:49:15.302Z,100655.86
2018-08-24T11:51:43.951Z,100651.92
2018-08-24T11:54:12.668Z,100648.88
2018-08-24T11:56:41.326Z,100644.17
2018-08-24T11:59:09.958Z,100660.33
2018-08-24T12:01:38.627Z,100649.84
2018-08-24T12:04:07.242Z,100658.75
2018-08-24T12:06:35.893Z,100647.90
2018-08-24T12:09:06.372Z,100654.02
2018-08-24T12:11:35.029Z,100659.28
2018-08-24T12:14:03.793Z,100658.17
2018-08-24T12:16:32.480Z,100660.41
2018-08-24T12:19:01.135Z,100661.19
2018-08-24T12:21:30.692Z,100668.98
2018-08-24T12:23:59.334Z,100671.73
2018-08-24T12:26:27.988Z,100674.02
2018-08-24T12:28:56.634Z,100679.30
2018-08-24T12:31:25.271Z,100676.52
2018-08-24T12:33:53.925Z,100675.66
2018-08-24T12:36:22.572Z,100671.75
2018-08-24T12:38:51.205Z,100679.80
2018-08-24T12:41:19.937Z,100681.11
2018-08-24T12:43:48.539Z,100683.33
2018-08-24T12:46:17.246Z,100678.34
2018-08-24T12:48:45.864Z,100681.13
2018-08-24T12:51:14.518Z,100691.40
2018-08-24T12:53:43.149Z,100680.35
2018-08-24T12:56:17.371Z,100675.13
2018-08-24T12:58:46.026Z,100667.30
2018-08-24T13:01:14.677Z,100664.47
2018-08-24T13:03:43.592Z,100662.98
2018-08-24T13:06:12.557Z,100660.07
2018-08-24T13:08:41.713Z,100654.58
2018-08-24T13:11:10.433Z,100644.01
2018-08-24T13:13:39.100Z,100646.09
2018-08-24T13:16:07.893Z,100648.38
2018-08-24T13:18:36.592Z,100643.09
2018-08-24T13:21:05.607Z,100635.51
2018-08-24T13:23:34.470Z,100637.83
2018-08-24T13:26:03.107Z,100630.84
2018-08-24T13:28:31.748Z,100634.58
2018-08-24T13:31:00.425Z,100632.38
2018-08-24T13:33:29.064Z,100633.50
2018-08-24T13:35:57.711Z,100620.66
2018-08-24T13:38:26.353Z,100625.73
2018-08-24T13:40:54.995Z,100626.78
2018-08-24T13:43:23.648Z,100626.34
2018-08-24T13:45:52.277Z,100624.95
2018-08-24T13:48:20.925Z,100615.72
2018-08-24T13:50:49.717Z,100622.46
2018-08-24T13:53:18.443Z,100632.59
2018-08-24T13:55:47.326Z,100626.48
2018-08-24T13:58:16.021Z,100620.98
2018-08-24T14:00:44.684Z,100622.50
2018-08-24T14:03:13.367Z,100616.75
2018-08-24T14:05:41.998Z,100623.05
2018-08-24T14:08:10.645Z,100604.77
2018-08-24T14:10:39.279Z,100605.72
2018-08-24T14:13:07.966Z,100605.98
2018-08-24T14:15:36.557Z,100612.08
2018-08-24T14:18:05.212Z,100606.54
2018-08-24T14:20:33.844Z,100608.93
2018-08-24T14:23:02.567Z,100608.33
2018-08-24T14:25:31.253Z,100596.87
2018-08-24T14:27:59.872Z,100602.05
2018-08-24T14:30:28.510Z,100597.86
2018-08-24T14:32:57.171Z,100598.02
2018-08-24T14:35:25.791Z,100598.52
2018-08-24T14:37:54.428Z,100600.83
2018-08-24T14:40:23.050Z,100588.78
2018-08-24T14:42:51.703Z,100601.03
2018-08-24T14:45:20.342Z,100616.90
2018-08-24T14:47:48.993Z,100615.30
2018-08-24T14:50:17.634Z,100605.02
2018-08-24T14:52:46.276Z,100606.70
2018-08-24T14:55:14.917Z,100591.70
2018-08-24T14:57:43.580Z,100606.11
2018-08-24T15:00:12.210Z,100609.20
2018-08-24T15:02:40.864Z,100602.25
2018-08-24T15:05:11.384Z,100597.66
2018-08-24T15:07:40.159Z,100601.72
2018-08-24T15:10:09.389Z,100614.41
2018-08-24T15:12:38.149Z,100623.42
2018-08-24T15:15:07.150Z,100601.53
2018-08-24T15:17:35.824Z,100644.53
2018-08-24T15:20:05.020Z,100646.45
2018-08-24T15:22:34.196Z,100628.59
2018-08-24T15:25:02.825Z,100652.25
2018-08-24T15:27:31.489Z,100645.59
2018-08-24T15:30:00.144Z,100650.89
2018-08-24T15:32:28.809Z,100652.90
2018-08-24T15:34:57.468Z,100664.30
2018-08-24T15:37:26.115Z,100659.83
2018-08-24T15:39:54.776Z,100670.41
2018-08-24T15:42:23.408Z,100669.03
2018-08-24T15:44:52.056Z,100668.47
2018-08-24T15:47:20.693Z,100667.30
2018-08-24T15:49:49.359Z,100674.50
2018-08-24T15:52:18.005Z,100675.31
2018-08-24T15:54:46.783Z,100670.53
2018-08-24T15:57:15.365Z,100672.38
2018-08-24T15:59:44.015Z,100687.10
2018-08-24T16:02:12.635Z,100674.84
2018-08-24T16:04:41.293Z,100685.34
2018-08-24T16:07:09.951Z,100677.81
2018-08-24T16:09:40.128Z,100684.06
2018-08-24T16:12:08.867Z,100691.41
2018-08-24T16:14:37.505Z,100691.66
2018-08-24T16:17:06.156Z,100694.64
2018-08-24T16:19:34.825Z,100689.73
2018-08-24T16:22:03.523Z,100691.00
2018-08-24T16:24:32.216Z,100689.82
2018-08-24T16:27:00.888Z,100690.92
2018-08-24T16:29:29.563Z,100687.37
2018-08-24T16:31:58.273Z,100688.17
2018-08-24T16:34:26.993Z,100693.70
2018-08-24T16:36:55.677Z,100690.60
2018-08-24T16:39:24.351Z,100692.51
2018-08-24T16:41:52.992Z,100698.61
2018-08-24T16:44:21.667Z,100688.00
2018-08-24T16:46:53.767Z,100692.66
2018-08-24T16:49:22.430Z,100697.58
2018-08-24T16:51:51.079Z,100696.66
2018-08-24T16:54:19.748Z,100704.41
2018-08-24T16:56:48.398Z,100702.06
2018-08-24T16:59:17.079Z,100703.38
2018-08-24T17:01:45.738Z,100712.20
2018-08-24T17:04:14.393Z,100719.80
2018-08-24T17:06:43.065Z,100727.19
2018-08-24T17:09:13.104Z,100729.59
2018-08-24T17:11:41.779Z,100740.38
2018-08-24T17:14:10.424Z,100734.55
2018-08-24T17:16:39.084Z,100741.92
2018-08-24T17:19:07.727Z,100735.23
2018-08-24T17:21:36.401Z,100738.47
2018-08-24T17:24:05.052Z,100746.95
2018-08-24T17:26:33.734Z,100748.01
2018-08-24T17:29:02.387Z,100747.64
2018-08-24T17:31:31.064Z,100753.66
2018-08-24T17:33:59.697Z,100753.58
2018-08-24T17:36:28.359Z,100747.36
2018-08-24T17:38:56.983Z,100748.14
2018-08-24T17:41:25.636Z,100747.48
2018-08-24T17:43:54.287Z,100742.12
2018-08-24T17:46:22.940Z,100741.78
2018-08-24T17:48:51.567Z,100740.91
2018-08-24T17:51:20.238Z,100747.20
2018-08-24T17:53:48.871Z,100746.77
2018-08-24T17:56:17.522Z,100756.81
2018-08-24T17:58:46.155Z,100759.72
2018-08-24T18:01:14.810Z,100763.13
2018-08-24T18:03:43.460Z,100761.08
2018-08-24T18:06:12.082Z,100774.83
2018-08-24T18:08:40.770Z,100771.73
2018-08-24T18:11:09.387Z,100766.96
2018-08-24T18:13:38.032Z,100760.81
2018-08-24T18:16:06.666Z,100766.16
2018-08-24T18:18:35.327Z,100763.84
2018-08-24T18:21:04.006Z,100763.70
2018-08-24T18:23:32.650Z,100760.86
2018-08-24T18:26:01.271Z,100766.58
2018-08-24T18:28:29.915Z,100765.89
2018-08-24T18:30:58.547Z,100764.45
2018-08-24T18:33:27.192Z,100756.92
2018-08-24T18:35:55.839Z,100760.45
2018-08-24T18:38:24.588Z,100763.95
2018-08-24T18:40:53.243Z,100767.13
2018-08-24T18:43:21.906Z,100767.30
2018-08-24T18:45:50.560Z,100769.30
2018-08-24T18:48:19.215Z,100775.77
2018-08-24T18:50:47.924Z,100779.80
2018-08-24T18:53:16.547Z,100779.73
2018-08-24T18:55:45.172Z,100789.34
2018-08-24T18:58:13.831Z,100789.34
2018-08-24T19:00:42.460Z,100794.06
2018-08-24T19:03:11.118Z,100798.19
2018-08-24T19:05:39.746Z,100793.41
2018-08-24T19:08:12.816Z,100794.02
2018-08-24T19:10:46.770Z,100788.78
2018-08-24T19:13:16.673Z,100787.95
2018-08-24T19:15:46.471Z,100791.91
2018-08-24T19:18:20.452Z,100784.66
2018-08-24T19:20:54.350Z,100791.26
2018-08-24T19:23:23.015Z,100792.09
2018-08-24T19:25:51.675Z,100792.67
2018-08-24T19:28:25.491Z,100797.41
2018-08-24T19:30:54.124Z,100801.00
2018-08-24T19:33:22.789Z,100812.38
2018-08-24T19:35:51.430Z,100816.33
2018-08-24T19:38:20.067Z,100813.64
2018-08-24T19:40:53.868Z,100818.14
2018-08-24T19:43:22.522Z,100818.42
2018-08-24T19:45:51.145Z,100816.98
2018-08-24T19:48:25.130Z,100822.38
2018-08-24T19:50:53.735Z,100821.84
2018-08-24T19:53:22.385Z,100825.56
2018-08-24T19:55:51.017Z,100828.17
2018-08-24T19:58:24.955Z,100830.81
2018-08-24T20:00:53.601Z,100822.77
2018-08-24T20:03:22.273Z,100828.16
2018-08-24T20:05:56.168Z,100824.67
2018-08-24T20:08:29.934Z,100819.52
2018-08-24T20:10:58.544Z,100821.45
2018-08-24T20:13:27.252Z,100821.45
2018-08-24T20:16:01.016Z,100824.67
2018-08-24T20:18:29.679Z,100825.98
2018-08-24T20:20:58.367Z,100828.38
2018-08-24T20:23:27.048Z,100834.98
2018-08-24T20:25:55.723Z,100836.31
2018-08-24T20:28:24.371Z,100839.84
2018-08-24T20:30:53.034Z,100838.17
2018-08-24T20:33:21.852Z,100836.87
2018-08-24T20:35:50.507Z,100840.09
2018-08-24T20:38:19.139Z,100837.81
2018-08-24T20:40:47.783Z,100842.38
2018-08-24T20:43:16.423Z,100849.95
2018-08-24T20:45:45.084Z,100844.33
2018-08-24T20:48:13.729Z,100850.09
2018-08-24T20:50:42.460Z,100855.59
2018-08-24T20:53:11.112Z,100859.40
2018-08-24T20:55:39.833Z,100860.78
2018-08-24T20:58:08.472Z,100855.23
2018-08-24T21:00:37.139Z,100856.06
2018-08-24T21:03:05.934Z,100856.90
2018-08-24T21:05:34.625Z,100848.34
2018-08-24T21:08:03.250Z,100839.55
2018-08-24T21:10:31.906Z,100829.91
2018-08-24T21:13:00.542Z,100831.28
2018-08-24T21:15:29.190Z,100833.42
2018-08-24T21:17:57.872Z,100836.10
2018-08-24T21:20:26.566Z,100834.06
2018-08-24T21:22:55.225Z,100838.62
2018-08-24T21:25:23.888Z,100838.25
2018-08-24T21:27:52.761Z,100831.59
2018-08-24T21:30:21.566Z,100830.75
2018-08-24T21:32:50.177Z,100833.98
2018-08-24T21:35:18.855Z,100840.48
2018-08-24T21:37:47.490Z,100834.49
2018-08-24T21:40:16.155Z,100837.58
2018-08-24T21:42:44.788Z,100831.92
2018-08-24T21:45:13.449Z,100839.64
2018-08-24T21:47:42.091Z,100832.72
2018-08-24T21:50:10.757Z,100833.34
2018-08-24T21:52:39.408Z,100833.35
2018-08-24T21:55:08.099Z,100828.48
2018-08-24T21:57:36.830Z,100831.64
2018-08-24T22:00:08.536Z,100829.56
2018-08-24T22:02:37.178Z,100824.73
2018-08-24T22:05:05.903Z,100826.19
2018-08-24T22:07:34.536Z,100817.72
2018-08-24T22:10:03.190Z,100825.67
2018-08-24T22:12:31.849Z,100826.13
2018-08-24T22:15:00.554Z,100823.84
2018-08-24T22:17:29.191Z,100831.25
2018-08-24T22:19:57.827Z,100828.45
2018-08-24T22:22:26.513Z,100833.31
2018-08-24T22:24:55.228Z,100833.23
2018-08-24T22:27:23.944Z,100837.13
2018-08-24T22:29:52.584Z,100835.77
2018-08-24T22:32:21.288Z,100830.94
2018-08-24T22:34:49.924Z,100832.28
2018-08-24T22:37:18.591Z,100830.53
2018-08-24T22:39:47.277Z,100823.61
2018-08-24T22:42:15.982Z,100818.86
2018-08-24T22:44:44.625Z,100825.42
2018-08-24T22:47:13.310Z,100821.76
2018-08-24T22:49:41.939Z,100816.41
2018-08-24T22:52:10.591Z,100813.58
2018-08-24T22:54:39.224Z,100809.31
2018-08-24T22:57:07.950Z,100806.61
2018-08-24T22:59:36.653Z,100801.20
2018-08-24T23:02:05.329Z,100803.00
2018-08-24T23:04:33.973Z,100802.67
2018-08-24T23:07:02.637Z,100797.95
2018-08-24T23:09:31.284Z,100789.33
2018-08-24T23:11:59.950Z,100795.85
2018-08-24T23:14:28.588Z,100794.30
2018-08-24T23:16:57.273Z,100793.75
2018-08-24T23:19:25.975Z,100786.33
2018-08-24T23:21:54.628Z,100790.27
2018-08-24T23:24:23.242Z,100791.84
2018-08-24T23:26:51.880Z,100793.39
2018-08-24T23:29:20.503Z,100788.55
2018-08-24T23:31:49.155Z,100790.25
2018-08-24T23:34:17.795Z,100787.09
2018-08-24T23:36:46.424Z,100792.50
2018-08-24T23:39:15.070Z,100801.01
2018-08-24T23:41:43.738Z,100801.84
2018-08-24T23:44:12.433Z,100798.91
2018-08-24T23:46:41.099Z,100799.45
2018-08-24T23:49:09.735Z,100790.82
2018-08-24T23:51:38.362Z,100789.70
2018-08-24T23:54:07.044Z,100793.81
2018-08-24T23:56:35.677Z,100790.23
2018-08-24T23:59:04.342Z,100783.29
